Time;durP1;ratioP1;P1;durP2;ratioP2;P2;SDS_P1;SDS_P2;PMS_P1;PMS_P2;Temp;Humidity;BMP_temperature;BMP_pressure;BME280_temperature;BME280_humidity;BME280_pressure;Samples;Min_cycle;Max_cycle;Signal;HPM_P1;HPM_P2
2023/10/29 00:00:17;;;;;;;4.10;0.80;;;;;;;21.73;47.92;101227.71;107048;1259;25366;-59
2023/10/29 00:02:44;;;;;;;3.20;1.00;;;;;;;21.75;47.92;101230.23;107104;1256;25362;-56
2023/10/29 00:05:12;;;;;;;3.30;1.10;;;;;;;21.76;47.93;101233.88;107175;1259;23881;-58
2023/10/29 00:07:39;;;;;;;1.30;0.70;;;;;;;21.77;47.78;101229.43;107033;1272;25331;-58
2023/10/29 00:10:07;;;;;;;2.00;0.70;;;;;;;21.76;47.78;101229.48;107167;1257;25494;-61
2023/10/29 00:12:35;;;;;;;3.00;0.90;;;;;;;21.76;47.63;101233.05;106906;1258;23988;-56
2023/10/29 00:15:04;;;;;;;3.80;0.70;;;;;;;21.74;47.49;101230.84;107217;1265;25365;-56
2023/10/29 00:17:31;;;;;;;2.60;1.10;;;;;;;21.79;47.04;101225.61;107186;1253;22527;-59
2023/10/29 00:19:59;;;;;;;4.20;0.70;;;;;;;21.93;46.50;101220.67;107171;1256;25376;-56
2023/10/29 00:22:27;;;;;;;1.00;0.60;;;;;;;21.95;46.25;101219.00;106867;1266;24021;-60
2023/10/29 00:24:54;;;;;;;2.20;0.90;;;;;;;21.95;46.27;101218.14;107069;1260;22520;-58
2023/10/29 00:27:21;;;;;;;3.70;0.90;;;;;;;21.95;46.65;101213.66;107153;1253;25809;-57
2023/10/29 00:29:48;;;;;;;1.90;0.70;;;;;;;21.97;46.96;101211.48;107148;1256;25412;-57
2023/10/29 00:32:18;;;;;;;1.30;0.60;;;;;;;21.99;47.17;101219.45;107027;1263;25425;-57
2023/10/29 00:34:47;;;;;;;4.20;0.90;;;;;;;22.01;47.25;101216.13;107175;1256;25494;-57
2023/10/29 00:37:17;;;;;;;3.80;0.90;;;;;;;22.05;47.40;101216.75;107158;1253;22528;-57
2023/10/29 00:39:44;;;;;;;2.40;0.80;;;;;;;22.10;47.40;101220.18;106795;1272;25398;-57
2023/10/29 00:42:11;;;;;;;2.40;0.70;;;;;;;22.12;47.26;101221.11;107120;1256;25494;-57
2023/10/29 00:44:38;;;;;;;2.40;1.20;;;;;;;22.14;47.06;101219.40;106819;1266;25356;-57
2023/10/29 00:47:06;;;;;;;1.00;0.60;;;;;;;22.16;47.12;101217.34;107041;1257;25412;-56
2023/10/29 00:49:33;;;;;;;1.90;0.80;;;;;;;22.16;47.12;101216.75;106878;1258;25369;-62
2023/10/29 00:52:00;;;;;;;1.00;0.60;;;;;;;22.16;47.27;101223.68;107161;1256;22563;-56
2023/10/29 00:54:27;;;;;;;3.50;0.90;;;;;;;22.16;47.40;101226.31;107223;1265;25347;-58
2023/10/29 00:56:54;;;;;;;4.70;0.90;;;;;;;22.15;47.35;101227.95;107075;1259;25351;-57
2023/10/29 00:59:22;;;;;;;4.60;0.80;;;;;;;22.16;47.22;101229.87;107093;1255;25366;-58
2023/10/29 01:01:49;;;;;;;1.20;0.90;;;;;;;22.16;47.06;101231.65;106711;1268;24196;-58
2023/10/29 01:04:15;;;;;;;3.30;1.20;;;;;;;22.15;47.00;101239.11;107163;1256;25556;-56
2023/10/29 01:06:44;;;;;;;1.50;0.80;;;;;;;22.13;47.12;101240.50;106920;1258;25366;-58
2023/10/29 01:09:11;;;;;;;3.90;0.70;;;;;;;22.10;47.03;101242.79;107220;1258;22579;-56
2023/10/29 01:11:38;;;;;;;3.70;0.90;;;;;;;22.08;47.06;101239.02;107030;1261;25331;-56
2023/10/29 01:14:05;;;;;;;3.00;0.70;;;;;;;22.07;47.14;101234.67;107154;1262;25337;-57
2023/10/29 01:16:32;;;;;;;1.80;0.80;;;;;;;22.05;47.47;101236.00;107167;1253;25402;-56
2023/10/29 01:18:59;;;;;;;1.30;0.70;;;;;;;22.04;47.72;101236.11;107114;1256;25498;-59
2023/10/29 01:21:27;;;;;;;1.80;0.70;;;;;;;22.02;47.87;101237.29;107117;1263;25376;-57
2023/10/29 01:23:55;;;;;;;4.20;1.00;;;;;;;21.99;47.97;101240.63;107247;1254;25414;-57
2023/10/29 01:26:22;;;;;;;3.30;1.20;;;;;;;21.96;47.75;101242.05;107128;1262;25401;-56
2023/10/29 01:28:49;;;;;;;4.10;1.00;;;;;;;21.94;47.39;101244.85;107146;1256;25424;-62
2023/10/29 01:31:16;;;;;;;0.80;0.60;;;;;;;21.92;47.12;101250.48;107149;1256;25337;-56
2023/10/29 01:33:43;;;;;;;0.80;0.60;;;;;;;21.90;46.78;101251.06;107129;1253;25378;-57
2023/10/29 01:36:10;;;;;;;2.30;0.70;;;;;;;21.91;46.66;101248.95;107327;1256;25373;-56
2023/10/29 01:38:37;;;;;;;3.60;0.80;;;;;;;21.90;46.65;101253.20;107103;1266;25400;-60
2023/10/29 01:41:05;;;;;;;2.40;0.80;;;;;;;21.89;46.75;101252.38;107081;1256;25338;-55
2023/10/29 01:43:32;;;;;;;1.50;0.60;;;;;;;21.88;46.81;101254.77;107139;1256;25338;-58
2023/10/29 01:45:58;;;;;;;2.60;0.90;;;;;;;21.87;47.00;101257.45;107243;1269;25424;-57
2023/10/29 01:48:27;;;;;;;1.90;1.00;;;;;;;21.86;47.06;101262.49;107238;1262;25398;-57
2023/10/29 01:50:55;;;;;;;1.80;1.00;;;;;;;21.83;47.24;101262.63;106963;1258;22527;-56
2023/10/29 01:53:22;;;;;;;2.20;0.80;;;;;;;21.82;47.44;101260.75;107202;1253;25384;-57
2023/10/29 01:55:49;;;;;;;1.50;0.80;;;;;;;21.81;47.38;101259.38;107149;1256;25456;-56
2023/10/29 01:58:17;;;;;;;1.60;0.90;;;;;;;21.81;47.27;101264.67;107146;1256;25328;-58
2023/10/29 02:00:44;;;;;;;2.50;0.90;;;;;;;21.82;47.28;101268.91;107130;1256;25494;-57
2023/10/29 02:03:11;;;;;;;4.10;1.00;;;;;;;21.82;47.36;101267.98;107067;1256;25349;-58
2023/10/29 02:05:39;;;;;;;1.00;0.70;;;;;;;21.83;47.32;101265.98;107126;1266;24188;-58
2023/10/29 02:08:06;;;;;;;1.80;0.60;;;;;;;21.84;47.27;101268.59;107221;1262;25396;-58
2023/10/29 02:10:33;;;;;;;2.10;0.70;;;;;;;21.85;47.34;101273.64;107121;1262;25454;-55
2023/10/29 02:13:01;;;;;;;3.70;1.10;;;;;;;21.85;47.49;101269.20;106811;1266;25348;-57
2023/10/29 02:15:28;;;;;;;3.60;1.20;;;;;;;21.82;47.74;101268.36;106908;1259;25522;-57
2023/10/29 02:17:55;;;;;;;0.90;0.70;;;;;;;21.71;48.20;101266.51;107192;1265;25376;-63
2023/10/29 02:20:23;;;;;;;3.30;0.90;;;;;;;21.69;48.43;101268.39;107143;1256;25428;-61
2023/10/29 02:22:50;;;;;;;1.50;0.70;;;;;;;21.68;48.62;101269.70;107150;1256;23893;-56
2023/10/29 02:25:17;;;;;;;1.50;0.70;;;;;;;21.76;48.69;101274.48;107180;1265;25338;-58
2023/10/29 02:27:44;;;;;;;1.60;0.90;;;;;;;21.80;48.79;101269.35;107136;1266;22527;-60
2023/10/29 02:30:11;;;;;;;1.80;0.70;;;;;;;21.79;48.88;101271.32;107071;1260;24279;-63
2023/10/29 02:32:38;;;;;;;3.70;1.00;;;;;;;21.79;49.07;101271.51;107132;1256;25421;-61
2023/10/29 02:35:08;;;;;;;3.30;1.30;;;;;;;21.78;49.14;101278.44;107046;1256;25348;-60
2023/10/29 02:37:36;;;;;;;3.00;1.00;;;;;;;21.77;49.46;101283.30;106698;1271;25396;-65
2023/10/29 02:40:03;;;;;;;2.70;1.50;;;;;;;21.75;49.49;101286.07;107188;1264;25497;-61
2023/10/29 02:42:31;;;;;;;1.50;1.00;;;;;;;21.72;49.45;101288.16;107270;1254;23862;-56
2023/10/29 02:44:58;;;;;;;1.80;0.70;;;;;;;21.71;49.20;101292.49;107179;1256;25498;-56
2023/10/29 02:47:26;;;;;;;0.60;0.60;;;;;;;21.71;48.90;101293.36;107107;1266;25365;-62
2023/10/29 02:49:53;;;;;;;2.20;1.30;;;;;;;21.71;48.62;101293.02;106776;1257;425462;-56
2023/10/29 02:52:19;;;;;;;1.40;1.10;;;;;;;21.72;48.37;101297.20;107207;1256;25338;-64
2023/10/29 02:54:46;;;;;;;2.60;0.70;;;;;;;21.75;48.06;101297.70;106991;1257;25338;-59
2023/10/29 02:57:14;;;;;;;1.30;0.70;;;;;;;21.77;47.76;101304.83;106914;1272;25330;-56
2023/10/29 02:59:41;;;;;;;1.40;0.70;;;;;;;21.78;47.50;101309.34;107150;1253;25338;-56
2023/10/29 03:02:09;;;;;;;0.80;0.80;;;;;;;21.79;47.13;101310.03;107077;1256;25348;-56
2023/10/29 03:04:36;;;;;;;4.70;0.80;;;;;;;21.77;46.92;101312.05;106867;1262;24207;-56
2023/10/29 03:07:03;;;;;;;1.90;0.70;;;;;;;21.75;46.79;101309.17;107085;1259;25376;-56
2023/10/29 03:09:30;;;;;;;3.30;1.00;;;;;;;21.74;46.86;101311.34;107267;1258;25412;-56
2023/10/29 03:11:57;;;;;;;1.30;1.00;;;;;;;21.73;46.96;101313.95;107159;1256;25347;-56
2023/10/29 03:14:24;;;;;;;2.30;0.70;;;;;;;21.71;46.91;101322.86;107225;1261;22541;-56
2023/10/29 03:16:51;;;;;;;2.40;1.00;;;;;;;21.70;46.89;101322.03;107116;1253;25366;-58
2023/10/29 03:19:18;;;;;;;2.60;0.90;;;;;;;21.69;46.95;101319.08;107214;1263;25497;-57
2023/10/29 03:21:47;;;;;;;2.50;1.30;;;;;;;21.68;46.84;101317.22;107291;1256;25449;-56
2023/10/29 03:24:15;;;;;;;2.60;1.00;;;;;;;21.66;46.50;101310.43;107209;1253;25356;-55
2023/10/29 03:26:43;;;;;;;2.90;0.60;;;;;;;21.52;46.59;101301.73;107055;1266;22530;-55
2023/10/29 03:29:11;;;;;;;3.30;0.90;;;;;;;21.39;46.70;101301.28;107220;1264;25469;-55
2023/10/29 03:31:38;;;;;;;1.60;0.70;;;;;;;21.36;46.88;101304.25;107158;1266;25366;-55
2023/10/29 03:34:05;;;;;;;3.50;0.80;;;;;;;21.35;47.14;101306.78;107203;1256;25337;-57
2023/10/29 03:36:32;;;;;;;1.60;0.90;;;;;;;21.33;47.37;101307.95;107108;1256;25337;-58
2023/10/29 03:38:59;;;;;;;1.30;0.80;;;;;;;21.32;47.51;101314.94;107218;1259;25522;-57
2023/10/29 03:41:28;;;;;;;1.40;0.90;;;;;;;21.30;47.67;101318.03;107158;1263;25494;-60
2023/10/29 03:43:56;;;;;;;1.70;0.70;;;;;;;21.28;47.61;101320.83;107230;1256;25379;-58
2023/10/29 03:46:24;;;;;;;3.60;0.60;;;;;;;21.24;47.57;101324.92;107097;1263;25481;-56
2023/10/29 03:48:51;;;;;;;3.70;1.10;;;;;;;21.12;47.88;101325.05;107210;1262;25376;-57
2023/10/29 03:51:18;;;;;;;2.20;0.80;;;;;;;21.10;48.13;101327.52;107067;1264;25539;-57
2023/10/29 03:53:46;;;;;;;3.70;1.10;;;;;;;21.10;48.39;101331.19;107087;1256;25373;-57
2023/10/29 03:56:13;;;;;;;2.00;1.10;;;;;;;21.12;48.68;101330.23;107116;1257;25446;-56
2023/10/29 03:58:40;;;;;;;2.40;1.20;;;;;;;21.12;48.78;101330.70;106906;1259;25372;-57
2023/10/29 04:01:07;;;;;;;3.10;1.40;;;;;;;21.13;48.82;101335.77;106894;1258;25500;-59
2023/10/29 04:03:35;;;;;;;1.90;0.80;;;;;;;21.12;48.93;101340.41;107229;1256;25440;-57
2023/10/29 04:06:08;;;;;;;1.30;0.70;;;;;;;21.11;48.88;101339.98;106978;1258;22524;-56
2023/10/29 04:08:36;;;;;;;2.40;0.70;;;;;;;21.10;49.05;101344.27;107155;1256;22521;-57
2023/10/29 04:11:04;;;;;;;3.40;1.10;;;;;;;21.07;49.14;101349.68;107163;1254;23892;-57
2023/10/29 04:13:31;;;;;;;4.90;1.10;;;;;;;21.05;49.53;101351.40;106963;1257;25524;-58
2023/10/29 04:15:59;;;;;;;1.50;0.80;;;;;;;21.02;49.65;101353.45;107120;1259;24283;-56
2023/10/29 04:18:31;;;;;;;1.40;1.10;;;;;;;21.02;49.72;101359.31;107157;1264;25510;-56
2023/10/29 04:20:58;;;;;;;3.50;1.00;;;;;;;21.02;49.85;101361.39;107132;1266;25338;-61
2023/10/29 04:23:25;;;;;;;2.30;0.80;;;;;;;21.02;49.88;101361.92;107058;1256;25498;-60
2023/10/29 04:25:52;;;;;;;1.80;0.90;;;;;;;21.03;49.75;101365.25;107112;1262;25359;-56
2023/10/29 04:28:19;;;;;;;1.30;0.80;;;;;;;21.03;49.77;101367.02;107049;1264;25376;-56
2023/10/29 04:30:48;;;;;;;3.90;1.60;;;;;;;21.02;49.48;101368.13;107200;1264;25348;-57
2023/10/29 04:33:15;;;;;;;2.30;1.40;;;;;;;21.00;49.21;101374.52;107292;1258;25494;-56
2023/10/29 04:35:42;;;;;;;3.10;1.20;;;;;;;20.98;48.89;101374.34;107203;1262;25364;-60
2023/10/29 04:38:09;;;;;;;2.60;1.40;;;;;;;20.94;48.75;101374.73;107123;1266;25532;-57
2023/10/29 04:40:36;;;;;;;2.70;1.50;;;;;;;20.90;48.58;101374.77;107173;1263;25348;-58
2023/10/29 04:43:03;;;;;;;4.90;1.70;;;;;;;20.84;48.64;101380.38;107134;1263;25337;-56
2023/10/29 04:45:30;;;;;;;2.20;1.60;;;;;;;20.76;48.77;101378.88;107088;1261;25425;-56
2023/10/29 04:47:57;;;;;;;5.70;2.10;;;;;;;20.68;49.13;101382.83;106998;1256;22525;-58
2023/10/29 04:50:24;;;;;;;2.10;1.70;;;;;;;20.59;49.28;101389.33;107205;1262;22774;-59
2023/10/29 04:52:52;;;;;;;4.40;2.60;;;;;;;20.51;49.60;101394.68;107145;1260;25351;-59
2023/10/29 04:55:18;;;;;;;6.30;3.00;;;;;;;20.43;50.61;101398.86;106938;1263;25373;-57
2023/10/29 04:57:46;;;;;;;5.30;3.00;;;;;;;20.33;51.45;101402.69;106766;1263;25490;-57
2023/10/29 05:00:13;;;;;;;7.80;3.90;;;;;;;20.26;51.93;101411.73;104960;1264;1003672;-59
2023/10/29 05:02:40;;;;;;;4.60;3.00;;;;;;;20.22;52.21;101410.34;107194;1261;25362;-57
2023/10/29 05:05:11;;;;;;;5.00;3.30;;;;;;;20.20;52.61;101414.11;106817;1272;25365;-56
2023/10/29 05:07:38;;;;;;;5.20;3.10;;;;;;;20.18;52.80;101419.48;107213;1264;25328;-57
2023/10/29 05:10:06;;;;;;;6.00;3.50;;;;;;;20.14;53.04;101427.29;107074;1263;25417;-57
2023/10/29 05:12:33;;;;;;;5.60;3.60;;;;;;;20.09;53.45;101435.95;106828;1262;22646;-59
2023/10/29 05:15:00;;;;;;;6.70;3.80;;;;;;;20.09;53.66;101441.98;106876;1266;25969;-57
2023/10/29 05:17:28;;;;;;;7.20;4.30;;;;;;;20.09;53.77;101445.33;107043;1263;25354;-59
2023/10/29 05:19:56;;;;;;;6.20;4.00;;;;;;;20.11;53.74;101446.60;107150;1263;25487;-59
2023/10/29 05:22:23;;;;;;;10.30;4.50;;;;;;;20.14;53.73;101454.73;106950;1263;25337;-57
2023/10/29 05:24:50;;;;;;;6.00;3.90;;;;;;;20.13;53.93;101460.25;107005;1266;25446;-58
2023/10/29 05:27:17;;;;;;;5.00;3.70;;;;;;;20.11;54.18;101456.30;107040;1269;25358;-59
2023/10/29 05:29:44;;;;;;;6.50;4.30;;;;;;;20.10;54.45;101460.75;107106;1253;22531;-57
2023/10/29 05:32:11;;;;;;;6.80;4.30;;;;;;;20.12;54.52;101464.19;106950;1260;22527;-60
2023/10/29 05:34:39;;;;;;;6.10;3.90;;;;;;;20.14;54.55;101466.91;106759;1269;25363;-57
2023/10/29 05:37:06;;;;;;;5.00;3.90;;;;;;;20.16;54.54;101473.65;107016;1256;25805;-58
2023/10/29 05:39:33;;;;;;;10.10;4.00;;;;;;;20.19;54.53;101482.17;106787;1270;25337;-57
2023/10/29 05:42:00;;;;;;;6.20;3.60;;;;;;;20.19;54.63;101482.69;107133;1260;25414;-61
2023/10/29 05:44:27;;;;;;;6.60;4.00;;;;;;;20.19;54.57;101486.03;107070;1256;25366;-57
2023/10/29 05:46:54;;;;;;;6.10;3.80;;;;;;;20.22;54.48;101480.98;106582;1267;25379;-58
2023/10/29 05:49:21;;;;;;;5.60;3.90;;;;;;;20.27;54.28;101485.84;106958;1257;25497;-63
2023/10/29 05:51:49;;;;;;;6.30;3.70;;;;;;;20.30;54.00;101491.15;107019;1264;25366;-59
2023/10/29 05:54:18;;;;;;;5.00;3.60;;;;;;;20.30;53.82;101493.25;107253;1264;25379;-60
2023/10/29 05:56:46;;;;;;;5.00;3.20;;;;;;;20.26;53.75;101496.45;107090;1254;22579;-57
2023/10/29 05:59:13;;;;;;;7.60;3.90;;;;;;;20.22;54.05;101497.71;107125;1254;25393;-59
2023/10/29 06:01:40;;;;;;;5.00;3.60;;;;;;;20.20;54.14;101498.67;107148;1254;25338;-56
2023/10/29 06:04:07;;;;;;;7.10;3.70;;;;;;;20.21;54.04;101507.80;106777;1270;25328;-58
2023/10/29 06:06:35;;;;;;;5.80;3.60;;;;;;;20.23;54.08;101515.11;107060;1254;25519;-58
2023/10/29 06:09:02;;;;;;;6.20;3.90;;;;;;;20.23;54.03;101517.05;107112;1253;25349;-60
2023/10/29 06:11:47;;;;;;;7.60;3.40;;;;;;;20.23;54.00;101517.18;107107;1254;25337;-60
2023/10/29 06:14:14;;;;;;;4.90;3.70;;;;;;;20.24;54.08;101520.34;107009;1254;25366;-56
2023/10/29 06:16:41;;;;;;;7.60;3.90;;;;;;;20.25;54.20;101522.22;107129;1265;25494;-59
2023/10/29 06:19:09;;;;;;;9.50;4.10;;;;;;;20.26;54.48;101519.88;107139;1257;24219;-57
2023/10/29 06:21:36;;;;;;;5.40;3.90;;;;;;;20.29;54.74;101523.94;107123;1257;25535;-58
2023/10/29 06:24:03;;;;;;;5.90;3.50;;;;;;;20.33;55.22;101522.71;107205;1251;22639;-57
2023/10/29 06:26:30;;;;;;;5.90;3.60;;;;;;;20.39;55.54;101526.30;107069;1257;25363;-58
2023/10/29 06:28:58;;;;;;;6.80;3.90;;;;;;;20.47;55.69;101523.58;106987;1255;25360;-58
2023/10/29 06:31:29;;;;;;;8.40;3.90;;;;;;;20.57;55.91;101519.38;107076;1264;24203;-56
2023/10/29 06:33:56;;;;;;;4.90;3.70;;;;;;;20.67;55.90;101509.69;106666;1257;25452;-61
2023/10/29 06:36:23;;;;;;;7.70;4.10;;;;;;;20.77;55.92;101512.83;107043;1264;25338;-57
2023/10/29 06:38:50;;;;;;;5.50;4.00;;;;;;;20.85;55.89;101513.33;106977;1257;25481;-57
2023/10/29 06:41:19;;;;;;;6.10;4.00;;;;;;;20.91;55.81;101515.64;107055;1257;25411;-57
2023/10/29 06:43:47;;;;;;;8.10;4.10;;;;;;;20.94;55.71;101520.73;106905;1254;25460;-60
2023/10/29 06:46:18;;;;;;;6.30;4.10;;;;;;;21.00;55.78;101524.88;107054;1265;25533;-61
2023/10/29 06:48:45;;;;;;;4.80;3.90;;;;;;;21.07;55.57;101528.20;106868;1251;25318;-59
2023/10/29 06:51:13;;;;;;;5.90;4.00;;;;;;;21.13;55.71;101534.64;106656;1266;24185;-59
2023/10/29 06:53:41;;;;;;;6.30;3.70;;;;;;;21.18;55.59;101541.59;106959;1264;23416;-64
2023/10/29 06:56:09;;;;;;;7.50;4.40;;;;;;;21.24;55.48;101541.26;106899;1269;25353;-57
2023/10/29 06:58:38;;;;;;;5.10;3.90;;;;;;;21.28;55.43;101546.86;107058;1253;25366;-58
2023/10/29 07:01:06;;;;;;;8.10;3.70;;;;;;;21.31;55.25;101546.38;107209;1254;23364;-56
2023/10/29 07:03:33;;;;;;;5.50;3.40;;;;;;;21.32;55.37;101545.40;107150;1253;25369;-58
2023/10/29 07:06:11;;;;;;;5.30;4.20;;;;;;;21.37;55.32;101542.70;107095;1264;25382;-57
2023/10/29 07:08:38;;;;;;;8.50;4.70;;;;;;;21.42;55.12;101549.25;106598;1270;25510;-57
2023/10/29 07:11:06;;;;;;;8.20;4.60;;;;;;;21.48;55.05;101551.78;106937;1261;25359;-56
2023/10/29 07:13:34;;;;;;;6.90;4.40;;;;;;;21.54;54.94;101554.63;107093;1254;25973;-57
2023/10/29 07:16:03;;;;;;;9.50;4.90;;;;;;;21.61;54.92;101554.91;107207;1253;25338;-58
2023/10/29 07:18:30;;;;;;;7.90;4.90;;;;;;;21.69;54.89;101558.05;107193;1251;22528;-57
2023/10/29 07:20:57;;;;;;;5.30;3.90;;;;;;;21.78;54.60;101561.94;107134;1253;25497;-61
2023/10/29 07:23:25;;;;;;;6.70;3.90;;;;;;;21.84;54.42;101566.03;106959;1251;25389;-58
2023/10/29 07:25:52;;;;;;;8.00;3.80;;;;;;;21.87;54.24;101570.13;107090;1251;25433;-58
2023/10/29 07:28:19;;;;;;;7.60;3.50;;;;;;;21.90;54.12;101575.58;107025;1257;23216;-57
2023/10/29 07:30:46;;;;;;;9.30;3.40;;;;;;;21.95;54.02;101573.71;106984;1266;25376;-59
2023/10/29 07:33:13;;;;;;;6.20;3.40;;;;;;;22.01;54.01;101571.59;107161;1253;25498;-56
2023/10/29 07:35:41;;;;;;;4.10;3.00;;;;;;;22.10;53.84;101574.08;107105;1263;23861;-57
2023/10/29 07:38:08;;;;;;;4.30;3.10;;;;;;;22.19;53.70;101575.19;106833;1272;25415;-56
2023/10/29 07:40:38;;;;;;;5.80;2.90;;;;;;;22.26;53.56;101575.48;107131;1266;25338;-57
2023/10/29 07:43:05;;;;;;;4.00;2.40;;;;;;;22.35;53.46;101578.81;107108;1265;24219;-61
2023/10/29 07:45:32;;;;;;;3.10;1.80;;;;;;;22.45;53.48;101575.59;107051;1254;25500;-59
2023/10/29 07:48:00;;;;;;;3.20;1.90;;;;;;;22.54;53.32;101579.66;107074;1261;25376;-56
2023/10/29 07:50:28;;;;;;;2.90;1.60;;;;;;;22.63;52.93;101576.16;106925;1254;24276;-62
2023/10/29 07:52:55;;;;;;;2.70;1.60;;;;;;;22.73;52.70;101578.62;107128;1257;25365;-56
2023/10/29 07:55:22;;;;;;;3.00;1.40;;;;;;;22.82;52.22;101584.75;107107;1258;25532;-57
2023/10/29 07:57:49;;;;;;;5.70;2.90;;;;;;;22.92;51.93;101584.86;107141;1263;25338;-63
2023/10/29 08:00:17;;;;;;;2.50;1.70;;;;;;;22.99;51.72;101590.80;107126;1267;25400;-59
2023/10/29 08:02:44;;;;;;;4.20;2.10;;;;;;;23.08;51.32;101597.84;107209;1251;22533;-58
2023/10/29 08:05:11;;;;;;;5.70;2.50;;;;;;;23.15;50.95;101598.14;107122;1257;25477;-58
2023/10/29 08:07:39;;;;;;;4.00;2.40;;;;;;;23.17;51.19;101607.57;107154;1267;25352;-55
2023/10/29 08:10:07;;;;;;;5.20;2.70;;;;;;;23.24;51.20;101599.33;106816;1272;25497;-61
2023/10/29 08:12:34;;;;;;;4.20;2.30;;;;;;;23.33;51.03;101601.66;106947;1261;25356;-58
2023/10/29 08:15:02;;;;;;;3.30;2.50;;;;;;;23.39;50.71;101605.00;107159;1251;24187;-60
2023/10/29 08:17:29;;;;;;;2.70;2.10;;;;;;;23.44;50.61;101608.40;107214;1251;25379;-57
2023/10/29 08:19:58;;;;;;;2.60;1.90;;;;;;;23.49;50.06;101605.80;107237;1253;25800;-59
2023/10/29 08:22:26;;;;;;;2.30;1.80;;;;;;;23.55;49.37;101606.15;107218;1254;25417;-56
2023/10/29 08:24:53;;;;;;;2.70;1.70;;;;;;;23.60;48.30;101609.87;106953;1266;22524;-56
2023/10/29 08:27:20;;;;;;;3.70;2.20;;;;;;;23.63;47.30;101608.60;107019;1256;22620;-57
2023/10/29 08:29:49;;;;;;;2.20;1.50;;;;;;;23.67;47.00;101612.81;107040;1255;25406;-56
2023/10/29 08:32:17;;;;;;;1.70;1.50;;;;;;;23.71;46.34;101611.64;107178;1266;25341;-61
2023/10/29 08:34:44;;;;;;;3.30;1.60;;;;;;;23.76;45.84;101617.55;105751;1257;2002782;-57
2023/10/29 08:37:12;;;;;;;2.00;1.80;;;;;;;23.82;45.94;101616.63;107001;1257;23339;-59
2023/10/29 08:39:38;;;;;;;5.10;1.80;;;;;;;23.85;44.80;101618.21;107218;1251;24940;-59
2023/10/29 08:42:05;;;;;;;2.30;1.40;;;;;;;23.87;44.36;101613.80;107144;1257;25494;-58
2023/10/29 08:44:34;;;;;;;2.40;1.60;;;;;;;23.91;43.48;101618.73;106643;1266;25353;-57
2023/10/29 08:47:01;;;;;;;3.40;1.30;;;;;;;23.94;42.94;101619.95;107072;1257;25491;-59
2023/10/29 08:49:28;;;;;;;2.40;1.20;;;;;;;23.96;42.48;101619.11;107069;1254;25246;-58
2023/10/29 08:51:55;;;;;;;1.70;1.30;;;;;;;23.96;42.08;101619.40;107083;1261;22523;-57
2023/10/29 08:54:23;;;;;;;2.20;1.30;;;;;;;24.00;42.62;101619.91;107127;1258;25356;-57
2023/10/29 08:56:51;;;;;;;2.90;1.40;;;;;;;24.07;42.74;101627.45;106852;1256;25366;-58
2023/10/29 08:59:17;;;;;;;3.20;1.30;;;;;;;24.11;41.06;101625.22;107091;1254;25350;-63
2023/10/29 09:01:45;;;;;;;1.40;1.00;;;;;;;24.17;40.59;101626.46;106274;1257;1003586;-59
2023/10/29 09:04:13;;;;;;;1.60;1.10;;;;;;;24.20;39.24;101622.34;106994;1267;25421;-57
2023/10/29 09:06:41;;;;;;;1.10;1.00;;;;;;;24.22;38.89;101622.86;107156;1258;25469;-61
2023/10/29 09:09:08;;;;;;;1.10;0.80;;;;;;;24.29;38.41;101618.98;107116;1262;23856;-56
2023/10/29 09:11:36;;;;;;;1.80;0.90;;;;;;;24.34;36.82;101619.89;106867;1257;25355;-59
2023/10/29 09:14:04;;;;;;;1.80;1.20;;;;;;;24.39;37.01;101621.46;106952;1257;22535;-61
2023/10/29 09:16:32;;;;;;;1.60;1.20;;;;;;;24.45;38.83;101620.33;107247;1249;24197;-63
2023/10/29 09:18:59;;;;;;;2.00;1.20;;;;;;;24.52;39.42;101623.98;107231;1253;25415;-57
2023/10/29 09:21:27;;;;;;;1.30;0.90;;;;;;;24.57;39.04;101618.48;107328;1249;25492;-59
2023/10/29 09:23:54;;;;;;;1.20;0.90;;;;;;;24.63;37.76;101614.88;106803;1258;24270;-57
2023/10/29 09:26:21;;;;;;;2.20;0.90;;;;;;;24.67;36.37;101614.11;107208;1256;25356;-58
2023/10/29 09:28:48;;;;;;;1.80;1.00;;;;;;;24.70;35.33;101606.65;107218;1251;25373;-62
2023/10/29 09:31:19;;;;;;;3.40;1.00;;;;;;;24.73;34.90;101598.96;107191;1260;25415;-58
2023/10/29 09:33:47;;;;;;;1.90;1.00;;;;;;;24.77;34.71;101593.71;107591;1255;22561;-58
2023/10/29 09:36:14;;;;;;;1.50;1.00;;;;;;;24.82;34.56;101589.51;107143;1253;25477;-63
2023/10/29 09:38:41;;;;;;;2.90;1.10;;;;;;;24.87;34.65;101587.73;107257;1254;24203;-58
2023/10/29 09:41:08;;;;;;;2.10;0.80;;;;;;;24.89;34.17;101591.69;107225;1254;22656;-57
2023/10/29 09:43:42;;;;;;;1.30;0.90;;;;;;;24.96;33.34;101591.70;107002;1262;25365;-59
2023/10/29 09:46:10;;;;;;;2.60;0.90;;;;;;;25.02;33.07;101592.85;107257;1259;25338;-58
2023/10/29 09:48:38;;;;;;;1.80;0.70;;;;;;;25.08;32.90;101582.51;107457;1255;25366;-56
2023/10/29 09:51:08;;;;;;;4.30;1.20;;;;;;;25.15;32.63;101580.30;107207;1262;25376;-58
2023/10/29 09:53:36;;;;;;;1.90;1.00;;;;;;;25.21;32.28;101573.48;107224;1254;25385;-58
2023/10/29 09:56:07;;;;;;;1.20;0.80;;;;;;;25.26;32.54;101574.69;106778;1254;24257;-59
2023/10/29 09:58:38;;;;;;;2.00;1.10;;;;;;;25.31;32.35;101584.64;107103;1251;22535;-65
2023/10/29 10:01:05;;;;;;;2.40;1.00;;;;;;;25.36;32.05;101587.48;106730;1250;23389;-62
2023/10/29 10:03:32;;;;;;;2.30;0.70;;;;;;;25.40;31.45;101585.23;107034;1254;25418;-60
2023/10/29 10:06:00;;;;;;;1.90;0.70;;;;;;;25.46;31.04;101588.55;107439;1253;25300;-59
2023/10/29 10:08:30;;;;;;;1.80;1.10;;;;;;;25.51;30.68;101588.05;106966;1262;25344;-59
2023/10/29 10:10:58;;;;;;;1.40;0.80;;;;;;;25.56;30.64;101587.34;107159;1252;26122;-57
2023/10/29 10:13:38;;;;;;;1.50;0.90;;;;;;;25.61;30.61;101592.61;106671;1260;22534;-59
2023/10/29 10:16:07;;;;;;;1.50;0.90;;;;;;;25.67;30.97;101595.06;107055;1254;23292;-58
2023/10/29 10:18:55;;;;;;;1.80;1.00;;;;;;;25.69;31.24;101598.83;106870;1250;24192;-58
2023/10/29 10:21:27;;;;;;;2.90;0.90;;;;;;;25.71;30.52;101596.52;107089;1251;22655;-59
2023/10/29 10:23:55;;;;;;;5.30;1.30;;;;;;;25.75;30.56;101600.53;107268;1258;23322;-57
2023/10/29 10:26:33;;;;;;;1.90;0.80;;;;;;;25.79;30.38;101599.52;107170;1249;25277;-58
2023/10/29 10:29:06;;;;;;;1.40;0.80;;;;;;;25.83;29.73;101600.80;107011;1258;22520;-57
2023/10/29 10:31:35;;;;;;;1.50;1.00;;;;;;;25.87;30.80;101602.17;107195;1251;22527;-57
2023/10/29 10:34:12;;;;;;;1.20;0.80;;;;;;;25.87;31.10;101599.30;107268;1251;22517;-60
2023/10/29 10:36:41;;;;;;;0.70;0.60;;;;;;;25.89;30.17;101604.66;106839;1270;22520;-59
2023/10/29 10:39:09;;;;;;;1.90;0.80;;;;;;;25.92;29.52;101605.85;107118;1254;22550;-57
2023/10/29 10:41:44;;;;;;;1.50;0.90;;;;;;;25.96;30.16;101610.41;107119;1250;25329;-58
2023/10/29 10:44:13;;;;;;;2.50;1.20;;;;;;;25.96;30.78;101615.37;107163;1250;23168;-61
2023/10/29 10:46:54;;;;;;;4.00;1.10;;;;;;;25.95;30.16;101615.23;107061;1256;24566;-56
2023/10/29 10:49:22;;;;;;;1.40;0.90;;;;;;;25.97;29.18;101612.09;107139;1254;22788;-58
2023/10/29 10:51:58;;;;;;;3.40;1.50;;;;;;;25.99;29.25;101617.61;106989;1256;25417;-58
2023/10/29 10:54:25;;;;;;;2.40;0.90;;;;;;;26.04;29.90;101624.06;107355;1250;22526;-59
2023/10/29 10:56:55;;;;;;;4.20;1.40;;;;;;;26.06;30.57;101620.01;107075;1250;26643;-59
2023/10/29 10:59:22;;;;;;;1.80;1.20;;;;;;;26.07;30.74;101624.52;107829;1254;23295;-57
2023/10/29 11:01:50;;;;;;;2.80;0.90;;;;;;;26.06;29.95;101626.54;107185;1254;25347;-57
2023/10/29 11:04:17;;;;;;;2.60;1.20;;;;;;;26.06;30.17;101620.65;107201;1250;25338;-58
2023/10/29 11:06:45;;;;;;;2.30;1.30;;;;;;;26.08;31.06;101616.28;107075;1256;25386;-62
2023/10/29 11:09:12;;;;;;;1.70;1.40;;;;;;;26.08;31.37;101616.80;107434;1252;24364;-58
2023/10/29 11:11:44;;;;;;;3.40;1.20;;;;;;;26.08;30.92;101614.69;107200;1256;23862;-60
2023/10/29 11:14:16;;;;;;;4.00;2.00;;;;;;;26.08;30.48;101609.17;107045;1253;25386;-59
2023/10/29 11:16:48;;;;;;;3.50;1.40;;;;;;;26.06;30.19;101608.61;107266;1266;25337;-63
2023/10/29 11:19:44;;;;;;;1.90;1.60;;;;;;;26.03;30.44;101611.11;106929;1257;24200;-58